Forest, Texas
Current Conditions -  °F | °C
As of 1:15 PM on Monday 22 Dec 2014 (Local Time) from KJSO Reporting Station
Scattered Clouds Scattered Clouds  
Wind Chill: 68°   Ceiling: Unl
Heat Index: 68°   Visibility: 10mi
Dew Point: 53°   Wind: 12mph
Humidity: 58%   Direction: 230°SW
Pressure: 29.61"   Gusts: 17mph
Location:  31.6384°N, 95.0772°W
Report Text: KJSO 221915Z AUTO 23010G15KT 200V260 10SM SCT031 20/11 A2961 RMK AO2 T02000116
Loading
Personal Weather Stations






























Interactive Weather Map New forecast layout! Learn more

10-Day Weather Forecast

Advertisements
Track Severe Weather on mobile